createdAt,value
2022-08-02T00:00:37.300Z,44.45
2022-08-02T00:02:39.129Z,44.45
2022-08-02T00:04:40.795Z,44.37
2022-08-02T00:06:42.564Z,44.36
2022-08-02T00:08:44.291Z,44.43
2022-08-02T00:10:46.028Z,44.35
2022-08-02T00:12:47.741Z,44.30
2022-08-02T00:14:49.446Z,44.16
2022-08-02T00:16:51.117Z,44.20
2022-08-02T00:18:53.098Z,44.29
2022-08-02T00:20:54.740Z,44.61
2022-08-02T00:22:56.413Z,44.60
2022-08-02T00:24:58.160Z,44.74
2022-08-02T00:26:59.932Z,44.63
2022-08-02T00:29:01.536Z,44.54
2022-08-02T00:31:03.282Z,44.82
2022-08-02T00:33:08.579Z,44.69
2022-08-02T00:35:10.251Z,44.62
2022-08-02T00:37:11.881Z,44.69
2022-08-02T00:39:34.167Z,44.57
2022-08-02T00:41:45.655Z,44.41
2022-08-02T00:43:48.241Z,44.69
2022-08-02T00:46:02.687Z,44.48
2022-08-02T00:48:06.857Z,44.44
2022-08-02T00:50:08.858Z,44.55
2022-08-02T00:52:10.689Z,44.42
2022-08-02T00:54:13.026Z,44.51
2022-08-02T00:56:14.708Z,44.86
2022-08-02T00:58:16.747Z,44.84
2022-08-02T01:00:18.918Z,44.74
2022-08-02T01:02:20.948Z,44.30
2022-08-02T01:04:26.840Z,44.40
2022-08-02T01:06:33.630Z,44.13
2022-08-02T01:08:35.264Z,44.02
2022-08-02T01:10:36.963Z,43.87
2022-08-02T01:12:39.332Z,43.97
2022-08-02T01:14:42.432Z,44.33
2022-08-02T01:16:53.359Z,44.15
2022-08-02T01:19:00.236Z,44.25
2022-08-02T01:21:10.907Z,44.41
2022-08-02T01:23:40.164Z,44.57
2022-08-02T01:26:01.655Z,44.83
2022-08-02T01:28:17.984Z,44.98
2022-08-02T01:30:19.844Z,45.75
2022-08-02T01:32:26.165Z,46.43
2022-08-02T01:34:36.466Z,46.51
2022-08-02T01:36:44.831Z,46.69
2022-08-02T01:38:49.471Z,47.59
2022-08-02T01:40:52.287Z,48.59
2022-08-02T01:42:55.067Z,49.26
2022-08-02T01:44:57.327Z,50.17
2022-08-02T01:47:04.140Z,51.18
2022-08-02T01:49:08.560Z,51.62
2022-08-02T01:51:15.200Z,52.26
2022-08-02T01:53:19.152Z,52.48
2022-08-02T01:55:35.255Z,52.82
2022-08-02T01:57:57.519Z,53.18
2022-08-02T02:00:01.639Z,52.96
2022-08-02T02:02:04.039Z,52.25
2022-08-02T02:04:08.407Z,51.94
2022-08-02T02:06:10.806Z,51.70
2022-08-02T02:08:12.789Z,51.59
2022-08-02T02:10:16.243Z,51.47
2022-08-02T02:12:18.654Z,52.02
2022-08-02T02:14:21.276Z,52.28
2022-08-02T02:16:23.045Z,52.27
2022-08-02T02:18:26.090Z,51.90
2022-08-02T02:20:27.773Z,51.60
2022-08-02T02:22:29.643Z,51.06
2022-08-02T02:24:31.668Z,51.16
2022-08-02T02:26:35.002Z,51.37
2022-08-02T02:28:38.571Z,51.98
2022-08-02T02:30:43.212Z,51.59
2022-08-02T02:32:46.115Z,51.74
2022-08-02T02:34:50.183Z,51.76
2022-08-02T02:36:52.273Z,51.62
2022-08-02T02:38:56.936Z,51.92
2022-08-02T02:41:03.621Z,51.82
2022-08-02T02:43:06.632Z,51.96
2022-08-02T02:45:10.031Z,52.04
2022-08-02T02:47:12.023Z,52.36
2022-08-02T02:49:15.302Z,52.47
2022-08-02T02:51:17.105Z,52.66
2022-08-02T02:53:19.278Z,52.68
2022-08-02T02:55:22.110Z,52.58
2022-08-02T02:57:24.364Z,52.69
2022-08-02T02:59:26.510Z,52.63
2022-08-02T03:01:55.523Z,52.89
2022-08-02T03:03:50.060Z,52.47
2022-08-02T03:05:51.812Z,52.50
2022-08-02T03:07:54.176Z,52.29
2022-08-02T03:09:55.894Z,52.52
2022-08-02T03:11:57.793Z,52.44
2022-08-02T03:14:00.968Z,52.58
2022-08-02T03:16:03.438Z,52.73
2022-08-02T03:18:07.872Z,52.25
2022-08-02T03:20:14.780Z,52.59
2022-08-02T03:22:16.447Z,52.94
2022-08-02T03:24:28.076Z,52.35
2022-08-02T03:26:30.108Z,52.11
2022-08-02T03:28:31.914Z,52.40
2022-08-02T03:30:33.638Z,53.02
2022-08-02T03:32:36.235Z,52.50
2022-08-02T03:34:37.835Z,51.79
2022-08-02T03:36:40.656Z,51.76
2022-08-02T03:38:43.070Z,52.19
2022-08-02T03:40:45.555Z,52.11
2022-08-02T03:42:48.210Z,51.96
2022-08-02T03:44:50.196Z,52.33
2022-08-02T03:46:52.522Z,51.68
2022-08-02T03:48:55.037Z,51.64
2022-08-02T03:50:57.112Z,51.89
2022-08-02T03:52:59.883Z,51.95
2022-08-02T03:55:01.598Z,50.89
2022-08-02T03:57:07.460Z,50.90
2022-08-02T03:59:13.830Z,51.67
2022-08-02T04:01:15.601Z,52.01
2022-08-02T04:03:19.937Z,52.10
2022-08-02T04:05:21.941Z,52.05
2022-08-02T04:08:34.489Z,52.30
2022-08-02T04:09:45.222Z,52.83
2022-08-02T04:11:46.856Z,53.40
2022-08-02T04:13:48.586Z,52.88
2022-08-02T04:15:54.773Z,54.26
2022-08-02T04:17:57.378Z,54.89
2022-08-02T04:20:04.381Z,54.31
2022-08-02T04:22:08.264Z,54.61
2022-08-02T04:24:11.858Z,54.48
2022-08-02T04:26:26.825Z,53.91
2022-08-02T04:28:30.908Z,53.20
2022-08-02T04:30:33.039Z,52.57
2022-08-02T04:32:35.584Z,51.97
2022-08-02T04:34:37.262Z,51.90
2022-08-02T04:36:39.030Z,51.48
2022-08-02T04:38:42.106Z,50.73
2022-08-02T04:40:54.457Z,50.07
2022-08-02T04:42:56.153Z,49.29
2022-08-02T04:44:58.542Z,49.10
2022-08-02T04:47:06.747Z,49.04
2022-08-02T04:49:09.063Z,48.83
2022-08-02T04:51:10.787Z,48.64
2022-08-02T04:53:12.709Z,48.33
2022-08-02T04:55:14.362Z,48.68
2022-08-02T04:57:34.555Z,49.12
2022-08-02T04:59:36.196Z,48.80
2022-08-02T05:01:39.453Z,48.54
2022-08-02T05:03:41.146Z,48.49
2022-08-02T05:05:42.935Z,47.82
2022-08-02T05:07:44.855Z,47.94
2022-08-02T05:09:46.540Z,47.52
2022-08-02T05:11:53.362Z,47.45
2022-08-02T05:13:57.906Z,47.29
2022-08-02T05:16:03.186Z,47.10
2022-08-02T05:18:05.049Z,47.10
2022-08-02T05:20:07.088Z,46.94
2022-08-02T05:22:09.209Z,47.07
2022-08-02T05:24:11.079Z,46.81
2022-08-02T05:26:12.677Z,46.65
2022-08-02T05:28:14.367Z,46.53
2022-08-02T05:30:16.225Z,46.32
2022-08-02T05:32:18.680Z,46.09
2022-08-02T05:34:20.380Z,45.96
2022-08-02T05:36:22.125Z,45.51
2022-08-02T05:38:26.025Z,44.93
2022-08-02T05:40:28.177Z,44.70
2022-08-02T05:42:32.923Z,45.37
2022-08-02T05:44:34.663Z,44.97
2022-08-02T05:46:36.296Z,44.53
2022-08-02T05:48:38.821Z,44.32
2022-08-02T05:50:45.120Z,43.96
2022-08-02T05:52:50.890Z,43.42
2022-08-02T05:55:07.184Z,43.32
2022-08-02T05:57:17.966Z,43.47
2022-08-02T05:59:37.867Z,42.95
2022-08-02T06:01:41.263Z,42.83
2022-08-02T06:03:51.593Z,42.91
2022-08-02T06:06:00.780Z,42.65
2022-08-02T06:08:04.464Z,42.40
2022-08-02T06:10:10.412Z,42.48
2022-08-02T06:12:13.645Z,42.37
2022-08-02T06:14:15.612Z,42.26
2022-08-02T06:16:18.090Z,42.29
2022-08-02T06:18:34.454Z,42.53
2022-08-02T06:20:37.146Z,42.63
2022-08-02T06:22:44.855Z,42.63
2022-08-02T06:24:48.037Z,42.25
2022-08-02T06:26:55.075Z,42.04
2022-08-02T06:28:58.470Z,42.27
2022-08-02T06:31:00.284Z,41.91
2022-08-02T06:33:02.235Z,42.11
2022-08-02T06:35:05.287Z,41.88
2022-08-02T06:37:18.986Z,42.03
2022-08-02T06:39:28.190Z,42.10
2022-08-02T06:41:32.412Z,41.81
2022-08-02T06:43:45.864Z,41.95
2022-08-02T06:45:47.584Z,41.80
2022-08-02T06:47:49.330Z,41.96
2022-08-02T06:49:54.235Z,41.34
2022-08-02T06:51:56.588Z,41.35
2022-08-02T06:53:58.173Z,41.26
2022-08-02T06:55:59.874Z,41.79
2022-08-02T06:58:01.555Z,41.85
2022-08-02T07:00:08.731Z,41.64
2022-08-02T07:02:12.167Z,41.47
2022-08-02T07:04:15.604Z,41.91
2022-08-02T07:06:19.219Z,42.13
2022-08-02T07:08:21.268Z,42.47
2022-08-02T07:10:23.097Z,42.02
2022-08-02T07:12:25.006Z,41.69
2022-08-02T07:14:26.888Z,41.72
2022-08-02T07:16:28.608Z,42.11
2022-08-02T07:18:30.423Z,41.86
2022-08-02T07:20:32.585Z,42.25
2022-08-02T07:22:34.372Z,42.00
2022-08-02T07:24:36.268Z,41.74
2022-08-02T07:26:55.242Z,42.57
2022-08-02T07:28:59.498Z,42.30
2022-08-02T07:31:01.314Z,41.94
2022-08-02T07:33:03.776Z,42.26
2022-08-02T07:35:07.451Z,41.28
2022-08-02T07:37:18.664Z,41.02
2022-08-02T07:39:31.466Z,41.04
2022-08-02T07:41:35.365Z,40.68
2022-08-02T07:43:37.189Z,41.43
2022-08-02T07:45:55.596Z,41.34
2022-08-02T07:47:58.988Z,41.35
2022-08-02T07:50:00.636Z,41.25
2022-08-02T07:52:02.348Z,40.85
2022-08-02T07:54:04.879Z,40.31
2022-08-02T07:56:06.708Z,40.11
2022-08-02T07:58:12.714Z,39.62
2022-08-02T08:00:17.313Z,39.62
2022-08-02T08:02:19.313Z,39.92
2022-08-02T08:04:20.957Z,39.81
2022-08-02T08:06:28.557Z,39.27
2022-08-02T08:08:30.874Z,38.52
2022-08-02T08:10:32.556Z,38.23
2022-08-02T08:12:34.398Z,38.83
2022-08-02T08:14:36.508Z,38.70
2022-08-02T08:16:38.181Z,39.51
2022-08-02T08:18:39.858Z,39.37
2022-08-02T08:20:41.444Z,39.46
2022-08-02T08:22:43.386Z,38.86
2022-08-02T08:24:45.495Z,38.30
2022-08-02T08:26:47.148Z,37.96
2022-08-02T08:28:49.083Z,37.78
2022-08-02T08:30:50.750Z,37.28
2022-08-02T08:32:52.476Z,37.78
2022-08-02T08:34:54.153Z,39.53
2022-08-02T08:36:55.767Z,39.45
2022-08-02T08:38:57.472Z,39.37
2022-08-02T08:40:59.222Z,39.10
2022-08-02T08:43:00.899Z,39.30
2022-08-02T08:45:02.714Z,39.34
2022-08-02T08:47:05.798Z,39.38
2022-08-02T08:49:26.016Z,39.09
2022-08-02T08:51:31.721Z,38.67
2022-08-02T08:53:39.768Z,38.75
2022-08-02T08:55:43.492Z,38.17
2022-08-02T08:57:45.586Z,37.81
2022-08-02T08:59:47.764Z,37.46
2022-08-02T09:01:51.392Z,36.95
2022-08-02T09:03:53.288Z,36.83
2022-08-02T09:05:58.145Z,37.21
2022-08-02T09:07:59.768Z,37.13
2022-08-02T09:10:01.484Z,37.54
2022-08-02T09:12:16.830Z,36.99
2022-08-02T09:14:29.327Z,36.79
2022-08-02T09:16:32.962Z,36.17
2022-08-02T09:18:43.968Z,35.46
2022-08-02T09:20:54.184Z,35.41
2022-08-02T09:23:12.235Z,35.29
2022-08-02T09:25:15.883Z,35.37
2022-08-02T09:27:19.984Z,35.66
2022-08-02T09:29:23.722Z,34.93
2022-08-02T09:31:25.973Z,35.71
2022-08-02T09:33:28.475Z,35.46
2022-08-02T09:36:06.433Z,35.84
2022-08-02T09:38:20.696Z,35.28
2022-08-02T09:40:35.763Z,34.85
2022-08-02T09:42:37.582Z,34.28
2022-08-02T09:44:39.312Z,34.83
2022-08-02T09:46:45.421Z,34.31
2022-08-02T09:48:54.102Z,33.87
2022-08-02T09:50:56.647Z,34.76
2022-08-02T09:52:58.912Z,35.57
2022-08-02T09:55:06.883Z,35.37
2022-08-02T09:57:08.751Z,35.43
2022-08-02T09:59:11.269Z,34.99
2022-08-02T10:01:13.163Z,34.59
2022-08-02T10:03:21.964Z,34.23
2022-08-02T10:05:30.488Z,34.41
2022-08-02T10:07:37.377Z,35.24
2022-08-02T10:09:46.426Z,35.41
2022-08-02T10:11:49.646Z,35.22
2022-08-02T10:13:51.891Z,35.39
2022-08-02T10:15:53.606Z,35.06
2022-08-02T10:17:55.358Z,34.63
2022-08-02T10:20:02.600Z,35.16
2022-08-02T10:22:07.812Z,35.25
2022-08-02T10:24:11.936Z,34.64
2022-08-02T10:26:19.335Z,34.44
2022-08-02T10:28:27.401Z,34.25
2022-08-02T10:30:29.641Z,34.47
2022-08-02T10:32:36.995Z,33.91
2022-08-02T10:34:44.399Z,34.10
2022-08-02T10:36:53.267Z,33.87
2022-08-02T10:38:58.671Z,34.26
2022-08-02T10:41:00.466Z,34.41
2022-08-02T10:43:02.142Z,34.73
2022-08-02T10:45:12.031Z,35.67
2022-08-02T10:47:26.463Z,36.09
2022-08-02T10:49:44.182Z,35.84
2022-08-02T10:51:59.562Z,34.93
2022-08-02T10:54:10.463Z,33.97
2022-08-02T10:56:12.110Z,33.59
2022-08-02T10:58:20.485Z,33.84
2022-08-02T11:00:28.477Z,33.76
2022-08-02T11:02:42.032Z,32.23
2022-08-02T11:04:43.640Z,32.81
2022-08-02T11:07:07.963Z,33.04
2022-08-02T11:09:34.179Z,32.73
2022-08-02T11:12:03.480Z,32.54
2022-08-02T11:14:09.347Z,32.52
2022-08-02T11:16:11.966Z,32.38
2022-08-02T11:18:13.873Z,31.96
2022-08-02T11:20:17.000Z,32.82
2022-08-02T11:22:23.839Z,33.37
2022-08-02T11:24:30.075Z,33.75
2022-08-02T11:26:31.692Z,33.85
2022-08-02T11:28:33.459Z,34.19
2022-08-02T11:30:35.237Z,34.38
2022-08-02T11:32:36.913Z,34.42
2022-08-02T11:34:39.429Z,34.89
2022-08-02T11:36:48.692Z,34.91
2022-08-02T11:38:50.337Z,34.09
2022-08-02T11:40:57.441Z,34.73
2022-08-02T11:42:59.319Z,34.36
2022-08-02T11:45:01.580Z,34.32
2022-08-02T11:47:03.575Z,34.79
2022-08-02T11:49:16.852Z,34.38
2022-08-02T11:51:18.943Z,34.61
2022-08-02T11:53:20.592Z,34.44
2022-08-02T11:55:30.201Z,33.65
2022-08-02T11:58:03.228Z,34.08
2022-08-02T11:59:55.771Z,33.04
2022-08-02T12:01:57.434Z,32.76
2022-08-02T12:04:01.018Z,32.46
2022-08-02T12:06:06.398Z,32.25
2022-08-02T12:08:08.785Z,32.42
2022-08-02T12:10:22.185Z,32.73
2022-08-02T12:12:23.864Z,32.48
2022-08-02T12:14:27.785Z,32.57
2022-08-02T12:16:58.324Z,32.37
2022-08-02T12:19:18.466Z,32.01
2022-08-02T12:21:24.546Z,32.19
2022-08-02T12:23:26.564Z,31.84
2022-08-02T12:25:33.590Z,31.95
2022-08-02T12:27:38.252Z,31.81
2022-08-02T12:29:57.961Z,32.37
2022-08-02T12:32:01.176Z,31.80
2022-08-02T12:34:15.050Z,31.83
2022-08-02T12:36:18.472Z,32.32
2022-08-02T12:38:20.471Z,32.47
2022-08-02T12:40:25.430Z,32.51
2022-08-02T12:42:27.455Z,32.63
2022-08-02T12:44:29.285Z,32.91
2022-08-02T12:46:32.018Z,33.12
2022-08-02T12:49:02.348Z,32.56
2022-08-02T12:51:50.772Z,32.58
2022-08-02T12:53:58.812Z,32.01
2022-08-02T12:56:03.855Z,32.37
2022-08-02T12:58:05.836Z,31.90
2022-08-02T13:00:09.796Z,31.37
2022-08-02T13:02:12.888Z,31.46
2022-08-02T13:04:16.575Z,31.59
2022-08-02T13:08:41.437Z,33.46
2022-08-02T13:10:43.606Z,33.87
2022-08-02T13:12:45.907Z,34.20
2022-08-02T13:14:47.664Z,34.78
2022-08-02T13:16:49.604Z,34.45
2022-08-02T13:18:51.310Z,33.85
2022-08-02T13:20:54.232Z,34.09
2022-08-02T13:22:56.158Z,33.80
2022-08-02T13:25:06.257Z,33.78
2022-08-02T13:27:09.198Z,33.31
2022-08-02T13:29:12.537Z,33.20
2022-08-02T13:31:35.522Z,32.60
2022-08-02T13:33:35.856Z,33.18
2022-08-02T13:35:37.503Z,33.26
2022-08-02T13:37:41.892Z,32.21
2022-08-02T13:39:51.477Z,32.19
2022-08-02T13:42:06.036Z,32.21
2022-08-02T13:44:10.778Z,32.67
2022-08-02T13:46:13.168Z,33.11
2022-08-02T13:48:16.676Z,33.20
2022-08-02T13:50:20.051Z,32.84
2022-08-02T13:52:21.766Z,32.53
2022-08-02T13:54:23.436Z,33.01
2022-08-02T13:56:35.184Z,32.78
2022-08-02T13:58:37.751Z,33.09
2022-08-02T14:00:39.513Z,33.35
2022-08-02T14:02:41.201Z,33.45
2022-08-02T14:04:43.184Z,32.87
2022-08-02T14:06:44.863Z,32.29
2022-08-02T14:08:46.537Z,32.51
2022-08-02T14:10:48.980Z,32.50
2022-08-02T14:12:56.491Z,32.32
2022-08-02T14:14:58.527Z,32.60
2022-08-02T14:17:00.152Z,32.52
2022-08-02T14:19:05.386Z,32.07
2022-08-02T14:21:12.380Z,32.18
2022-08-02T14:23:14.536Z,31.92
2022-08-02T14:25:16.230Z,32.00
2022-08-02T14:27:17.935Z,31.94
2022-08-02T14:29:19.626Z,31.75
2022-08-02T14:31:21.304Z,31.38
2022-08-02T14:33:23.435Z,31.33
2022-08-02T14:35:25.185Z,31.02
2022-08-02T14:37:26.798Z,31.14
2022-08-02T14:39:28.489Z,30.84
2022-08-02T14:41:58.887Z,30.32
2022-08-02T14:44:06.091Z,30.31
2022-08-02T14:46:07.930Z,30.07
2022-08-02T14:48:12.533Z,30.31
2022-08-02T14:50:14.615Z,30.37
2022-08-02T14:52:17.000Z,30.80
2022-08-02T14:54:18.711Z,31.19
2022-08-02T14:56:20.836Z,31.40
2022-08-02T14:58:22.548Z,31.69
2022-08-02T15:00:24.192Z,31.84
2022-08-02T15:02:26.060Z,31.57
2022-08-02T15:04:28.059Z,31.04
2022-08-02T15:06:35.704Z,31.43
2022-08-02T15:08:37.670Z,31.13
2022-08-02T15:10:40.256Z,30.40
2022-08-02T15:12:41.918Z,30.53
2022-08-02T15:14:43.911Z,30.77
2022-08-02T15:16:56.028Z,30.96
2022-08-02T15:18:59.179Z,31.36
2022-08-02T15:21:00.938Z,31.15
2022-08-02T15:23:09.722Z,31.14
2022-08-02T15:25:14.460Z,31.35
2022-08-02T15:27:17.350Z,31.44
2022-08-02T15:29:20.237Z,31.75
2022-08-02T15:31:30.761Z,32.17
2022-08-02T15:33:35.160Z,32.13
2022-08-02T15:35:36.848Z,32.53
2022-08-02T15:37:41.446Z,32.63
2022-08-02T15:39:43.953Z,32.36
2022-08-02T15:41:45.635Z,32.41
2022-08-02T15:44:00.276Z,32.52
2022-08-02T15:46:03.220Z,32.49
2022-08-02T15:48:05.207Z,32.07
2022-08-02T15:50:07.099Z,31.35
2022-08-02T15:52:12.848Z,31.81
2022-08-02T15:54:14.663Z,31.74
2022-08-02T15:56:16.286Z,32.39
2022-08-02T15:58:23.947Z,32.19
2022-08-02T16:00:25.628Z,31.60
2022-08-02T16:02:27.451Z,31.52
2022-08-02T16:04:29.251Z,31.56
2022-08-02T16:06:30.865Z,31.29
2022-08-02T16:08:32.530Z,31.57
2022-08-02T16:10:34.579Z,31.49
2022-08-02T16:12:36.226Z,31.50
2022-08-02T16:14:37.899Z,31.76
2022-08-02T16:16:40.423Z,32.18
2022-08-02T16:18:42.119Z,31.75
2022-08-02T16:20:43.718Z,32.17
2022-08-02T16:22:45.336Z,32.45
2022-08-02T16:24:47.536Z,32.97
2022-08-02T16:26:49.613Z,32.63
2022-08-02T16:28:54.415Z,32.94
2022-08-02T16:31:10.412Z,32.91
2022-08-02T16:33:13.172Z,32.90
2022-08-02T16:35:14.904Z,32.70
2022-08-02T16:37:16.661Z,32.65
2022-08-02T16:39:18.447Z,33.08
2022-08-02T16:41:20.489Z,33.04
2022-08-02T16:43:22.303Z,32.80
2022-08-02T16:45:23.998Z,32.73
2022-08-02T16:47:43.232Z,33.41
2022-08-02T16:50:04.600Z,33.30
2022-08-02T16:52:07.675Z,33.30
2022-08-02T16:54:11.330Z,33.45
2022-08-02T16:56:13.087Z,33.85
2022-08-02T16:58:16.265Z,34.00
2022-08-02T17:00:18.838Z,34.09
2022-08-02T17:02:20.505Z,34.00
2022-08-02T17:04:27.380Z,34.12
2022-08-02T17:06:30.434Z,34.21
2022-08-02T17:08:32.470Z,33.93
2022-08-02T17:10:34.530Z,33.74
2022-08-02T17:12:36.658Z,34.13
2022-08-02T17:14:42.096Z,33.63
2022-08-02T17:16:57.402Z,33.76
2022-08-02T17:19:01.062Z,33.91
2022-08-02T17:21:04.804Z,33.85
2022-08-02T17:23:06.497Z,34.17
2022-08-02T17:25:11.118Z,34.52
2022-08-02T17:27:13.488Z,34.68
2022-08-02T17:29:18.108Z,35.21
2022-08-02T17:31:19.926Z,35.82
2022-08-02T17:33:31.215Z,35.69
2022-08-02T17:35:52.012Z,36.25
2022-08-02T17:37:59.962Z,36.14
2022-08-02T17:40:01.954Z,36.49
2022-08-02T17:42:06.223Z,36.44
2022-08-02T17:44:08.626Z,36.43
2022-08-02T17:46:10.517Z,36.64
2022-08-02T17:48:14.918Z,36.96
2022-08-02T17:50:17.096Z,37.21
2022-08-02T17:52:51.700Z,37.03
2022-08-02T17:54:41.679Z,37.33
2022-08-02T17:56:48.511Z,37.48
2022-08-02T17:58:53.685Z,37.22
2022-08-02T18:00:56.994Z,37.27
2022-08-02T18:03:00.077Z,37.33
2022-08-02T18:05:01.801Z,37.65
2022-08-02T18:07:09.814Z,37.68
2022-08-02T18:09:12.009Z,37.48
2022-08-02T18:11:13.736Z,37.69
2022-08-02T18:13:15.896Z,37.63
2022-08-02T18:15:20.129Z,37.42
2022-08-02T18:17:22.022Z,37.42
2022-08-02T18:19:23.680Z,37.58
2022-08-02T18:21:44.405Z,38.10
2022-08-02T18:23:49.577Z,37.64
2022-08-02T18:25:55.347Z,37.87
2022-08-02T18:27:57.137Z,37.82
2022-08-02T18:30:04.219Z,37.52
2022-08-02T18:32:11.407Z,37.77
2022-08-02T18:34:13.842Z,37.64
2022-08-02T18:36:24.566Z,37.77
2022-08-02T18:38:28.438Z,37.68
2022-08-02T18:40:30.278Z,37.67
2022-08-02T18:42:31.977Z,38.34
2022-08-02T18:44:33.771Z,38.25
2022-08-02T18:46:35.452Z,38.34
2022-08-02T18:48:38.003Z,38.55
2022-08-02T18:50:39.881Z,38.98
2022-08-02T18:52:41.900Z,38.84
2022-08-02T18:54:43.608Z,38.82
2022-08-02T18:56:47.530Z,38.96
2022-08-02T18:58:49.282Z,39.04
2022-08-02T19:00:51.493Z,38.99
2022-08-02T19:02:54.193Z,39.26
2022-08-02T19:04:57.565Z,39.10
2022-08-02T19:07:07.407Z,39.52
2022-08-02T19:09:13.132Z,39.47
2022-08-02T19:11:15.288Z,39.58
2022-08-02T19:13:18.435Z,39.77
2022-08-02T19:15:20.172Z,40.05
2022-08-02T19:17:55.535Z,40.18
2022-08-02T19:19:44.159Z,40.26
2022-08-02T19:22:19.025Z,40.15
2022-08-02T19:24:07.809Z,40.37
2022-08-02T19:26:10.421Z,40.52
2022-08-02T19:28:12.150Z,40.73
2022-08-02T19:30:14.478Z,41.16
2022-08-02T19:32:41.854Z,41.06
2022-08-02T19:34:38.645Z,41.54
2022-08-02T19:36:40.837Z,41.80
2022-08-02T19:38:45.491Z,41.85
2022-08-02T19:40:51.306Z,41.82
2022-08-02T19:44:26.589Z,42.03
2022-08-02T19:45:15.682Z,41.87
2022-08-02T19:47:19.251Z,41.95
2022-08-02T19:49:39.994Z,41.93
2022-08-02T19:51:49.610Z,41.82
2022-08-02T19:53:56.020Z,42.28
2022-08-02T19:56:03.000Z,42.27
2022-08-02T19:58:05.824Z,42.15
2022-08-02T20:00:11.666Z,42.73
2022-08-02T20:02:15.859Z,42.60
2022-08-02T20:04:22.893Z,42.27
2022-08-02T20:06:29.701Z,42.54
2022-08-02T20:08:35.837Z,42.45
2022-08-02T20:10:40.758Z,42.59
2022-08-02T20:12:47.600Z,42.68
2022-08-02T20:14:51.239Z,42.70
2022-08-02T20:16:53.918Z,42.80
2022-08-02T20:18:56.380Z,42.68
2022-08-02T20:20:58.330Z,42.93
2022-08-02T20:23:33.742Z,42.85
2022-08-02T20:25:36.105Z,43.05
2022-08-02T20:27:51.272Z,42.95
2022-08-02T20:29:53.184Z,42.97
2022-08-02T20:31:54.913Z,43.06
2022-08-02T20:33:57.752Z,43.26
2022-08-02T20:36:01.682Z,43.23
2022-08-02T20:38:04.796Z,43.07
2022-08-02T20:40:07.434Z,43.54
2022-08-02T20:42:23.025Z,43.69
2022-08-02T20:44:30.748Z,43.94
2022-08-02T20:46:47.360Z,43.57
2022-08-02T20:48:50.016Z,43.38
2022-08-02T20:50:52.320Z,43.69
2022-08-02T20:52:55.015Z,43.37
2022-08-02T20:54:57.619Z,43.44
2022-08-02T20:56:59.363Z,43.66
2022-08-02T20:59:15.989Z,43.63
2022-08-02T21:01:17.926Z,43.77
2022-08-02T21:03:23.175Z,43.87
2022-08-02T21:05:26.796Z,43.91
2022-08-02T21:07:47.858Z,43.87
2022-08-02T21:09:55.077Z,43.74
2022-08-02T21:11:57.277Z,43.87
2022-08-02T21:14:08.663Z,43.70
2022-08-02T21:16:13.698Z,43.87
2022-08-02T21:18:22.878Z,43.70
2022-08-02T21:20:30.653Z,43.90
2022-08-02T21:22:32.358Z,44.28
2022-08-02T21:24:34.080Z,44.32
2022-08-02T21:26:35.786Z,44.29
2022-08-02T21:28:44.182Z,44.60
2022-08-02T21:30:46.944Z,44.90
2022-08-02T21:32:50.765Z,44.77
2022-08-02T21:34:53.216Z,44.69
2022-08-02T21:36:56.020Z,44.81
2022-08-02T21:38:58.005Z,44.57
2022-08-02T21:40:59.662Z,44.82
2022-08-02T21:43:01.320Z,45.07
2022-08-02T21:45:17.273Z,46.20
2022-08-02T21:47:27.506Z,46.12
2022-08-02T21:50:09.448Z,46.47
2022-08-02T21:51:51.827Z,46.64
2022-08-02T21:54:18.602Z,47.28
2022-08-02T21:56:15.172Z,47.07
2022-08-02T21:58:20.087Z,46.93
2022-08-02T22:00:22.541Z,46.95
2022-08-02T22:02:31.286Z,46.79
2022-08-02T22:04:33.082Z,46.42
2022-08-02T22:06:35.158Z,46.32
2022-08-02T22:08:38.154Z,46.36
2022-08-02T22:10:58.424Z,46.26
2022-08-02T22:13:01.566Z,46.24
2022-08-02T22:15:05.693Z,45.88
2022-08-02T22:17:13.821Z,46.00
2022-08-02T22:19:15.630Z,45.75
2022-08-02T22:21:17.641Z,46.01
2022-08-02T22:23:22.534Z,45.82
2022-08-02T22:25:40.725Z,45.93
2022-08-02T22:28:11.778Z,46.12
2022-08-02T22:32:07.705Z,46.03
2022-08-02T22:34:26.945Z,45.61
2022-08-02T22:36:43.422Z,45.84
2022-08-02T22:38:46.394Z,45.86
2022-08-02T22:40:48.935Z,45.86
2022-08-02T22:42:50.930Z,45.79
2022-08-02T22:44:52.549Z,45.83
2022-08-02T22:46:54.718Z,45.85
2022-08-02T22:48:56.808Z,45.96
2022-08-02T22:50:58.615Z,46.25
2022-08-02T22:53:00.667Z,45.99
2022-08-02T22:55:05.320Z,46.35
2022-08-02T22:57:11.553Z,46.46
2022-08-02T23:01:17.651Z,46.15
2022-08-02T23:03:19.319Z,46.73
2022-08-02T23:05:21.801Z,46.50
2022-08-02T23:07:23.515Z,46.77
2022-08-02T23:09:25.124Z,47.06
2022-08-02T23:11:26.878Z,46.95
2022-08-02T23:13:28.750Z,47.11
2022-08-02T23:15:50.427Z,47.29
2022-08-02T23:18:10.570Z,47.19
2022-08-02T23:20:15.465Z,46.76
2022-08-02T23:22:29.215Z,46.71
2022-08-02T23:24:33.903Z,46.72
2022-08-02T23:26:35.605Z,47.01
2022-08-02T23:28:37.459Z,47.14
2022-08-02T23:30:39.265Z,46.73
2022-08-02T23:32:41.040Z,46.94
2022-08-02T23:34:43.334Z,46.74
2022-08-02T23:36:45.037Z,46.78
2022-08-02T23:38:46.784Z,46.96
2022-08-02T23:40:48.458Z,46.65
2022-08-02T23:42:50.156Z,46.77
2022-08-02T23:44:52.758Z,46.98
2022-08-02T23:46:55.798Z,47.51
2022-08-02T23:48:57.468Z,47.48
2022-08-02T23:50:59.196Z,47.30
2022-08-02T23:53:00.852Z,47.39
2022-08-02T23:55:02.496Z,47.68
2022-08-02T23:57:21.096Z,47.09
2022-08-02T23:59:23.250Z,47.87
